x

Half Moon Bay - 24nm Ssw Of San Francisco, Ca (46012) Wave Buoy

10:50am - Sun 19th Apr 2015 All times are PDT. -7 hours from GMT.

  • Sig Wave height 6.2ft
  • Swell Direction
  • Peak Period 10s
  • Average Period 8s
  • Wind
    2mph, 4mph gusts
  • Sea Temp 54°f
  • Air Temp 53°f
  • Sea Pressure 1015mb
  • Half Moon Bay - 24nm Ssw Of San Francisco, Ca
  • Half Moon Bay - 24nm Ssw Of San Francisco, Ca

More Historic Weather Station data

Upgrade to MSW Pro to gain access to the past 30 days of data for over 8000 Wavebouys and Weather Stations around the globe.

Join Pro

Comparision Forecast

View Surf forecast
   
Sun 04/19 10:50am 6ft 10s 8s 2 4 mph 1015mb 54f 53f
9:50am 7ft 11s 8s 2 4 mph 1015mb 54f 53f
8:50am 7ft 11s 8s 2 4 mph 1015.2mb 54f 53f
7:50am 7ft 11s 7s 4 9 mph 1015.2mb 54f 53f
6:50am 7ft 13s 7s 4 7 mph 1014.8mb 54f 52f
5:50am 7ft 11s 7s 2 4 mph 1014.6mb 54f 52f
4:50am 8ft 13s 8s 4 9 mph 1014.5mb 54f 52f
3:50am 7ft 13s 8s 7 9 mph 1014.4mb 54f 52f
2:50am 7ft 12s 8s 7 9 mph 1014.1mb 53f 52f
1:50am 7.5ft 12s 8s 7 11 mph 1014.2mb 53f 52f
12:50am 7.5ft 12s 8s 7 13 mph 1014.4mb 53f 52f
Sat 04/18 11:50pm 8.5ft 11s 8s 7 9 mph 1014.4mb 53f 52f
10:50pm 9ft 13s 8s 7 11 mph 1014.7mb 53f 51f
9:50pm 9ft 11s 8s 7 11 mph 1014.8mb 53f 51f
8:50pm 9.5ft 14s 9s 7 11 mph 1014.5mb 53f 51f
7:50pm 9ft 12s 8s 11 13 mph 1014.1mb 53f 51f
6:50pm 10.5ft 14s 9s 9 13 mph 1014.3mb 53f 51f
5:50pm 9ft 14s 9s 9 13 mph 1014.6mb 54f 51f
4:50pm 10ft 14s 9s 9 13 mph 1015mb 54f 51f
3:50pm 9.5ft 13s 9s 9 11 mph 1015.6mb 54f 52f
2:50pm 9ft 14s 9s 7 11 mph 1015.9mb 54f 53f
1:50pm 9ft 14s 9s 7 9 mph 1016.4mb 54f 53f
12:50pm 8ft 14s 9s 4 7 mph 1016.7mb 54f 53f
11:50am 8ft 14s 9s 4 7 mph 1017.2mb 54f 52f
10:50am 8.5ft 14s 8s 4 7 mph 1017.5mb 53f 52f
9:50am 9ft 15s 9s 2
mph
1017.3mb 53f 51f
8:50am 8.5ft 13s 8s 4
mph
1017.4mb 53f 50f
7:50am 8.5ft 15s 8s 4 9 mph 1017.4mb 53f 50f
6:50am 9ft 15s 8s 7 11 mph 1017mb 53f 51f
5:50am 9ft 14s 8s 7 11 mph 1016.9mb 53f 52f
4:50am 9ft 15s 8s 4 11 mph 1016.9mb 53f 52f
3:50am 9ft 15s 8s 7 11 mph 1017.1mb 53f 52f
2:50am 9ft 15s 9s 7 13 mph 1017.6mb 53f 52f
1:50am 11ft 15s 9s 9 11 mph 1017.9mb 53f 52f
12:50am 10ft 16s 9s 7 11 mph 1018.2mb 53f 51f
Fri 04/17 11:50pm 10.5ft 15s 10s 7 11 mph 1018.3mb 53f 52f
10:50pm 10ft 14s 10s 11 16 mph 1018.2mb 53f 52f
9:50pm 10.5ft 14s 10s 13 16 mph 1018.1mb 53f 51f
8:50pm 12.5ft 16s 11s 13 16 mph 1017.6mb 53f 51f
7:50pm 11ft 16s 10s 13 16 mph 1017.4mb 53f 52f
6:50pm 12.5ft 16s 11s 13 18 mph 1017.5mb 53f 52f
5:50pm 12ft 16s 10s 13 18 mph 1017.9mb 53f 52f
4:50pm 11.5ft 16s 11s 11 16 mph 1017.9mb 54f 52f
3:50pm 10.5ft 16s 10s 13 18 mph 1018.4mb 54f 52f
2:50pm 10ft 16s 10s 13 16 mph 1018.8mb 54f 52f
1:50pm 11.5ft 16s 11s 9 11 mph 1019.1mb 55f 52f
12:50pm 10ft 16s 10s 9 11 mph 1019.4mb 54f 52f
11:50am 9ft 15s 9s 9 11 mph 1019.7mb 54f 52f
10:50am 11ft 16s 11s 7 11 mph 1019.4mb 53f 51f
9:50am 10ft 17s 10s  -  4 mph 1018.8mb 53f 51f
8:50am 11ft 16s 10s 2 7 mph 1018.6mb 53f 51f
7:50am 11ft 17s 11s 4 7 mph 1018.6mb 53f 52f
6:50am 10ft 17s 11s 7 11 mph 1018.2mb 52f 52f
5:50am 10ft 17s 10s 4 7 mph 1017.8mb 52f 52f
4:50am 9ft 17s 10s 4 9 mph 1017.7mb 52f 52f
3:50am 10.5ft 17s 11s 4 7 mph 1017.5mb 52f 52f
2:50am 10.5ft 19s 11s 4 9 mph 1017.6mb 52f 52f
1:50am 11ft 19s 11s 4 7 mph 1017.9mb 52f 52f
12:50am 10ft 17s 11s 2 4 mph 1017.8mb 52f 52f
Thu 04/16 11:50pm 8.5ft 19s 10s 4 7 mph 1017.8mb 52f 53f
10:50pm 9ft 19s 10s 2 4 mph 1017.7mb 53f 53f
9:50pm 9ft 19s 10s 4 7 mph 1017.2mb 52f 53f
8:50pm 9.5ft 19s 10s 11 13 mph 1016.3mb 52f 53f
7:50pm 11ft 21s 11s 13 16 mph 1015.3mb 53f 54f
6:50pm 10ft 19s 10s 13 16 mph 1015.3mb 53f 54f
5:50pm 9ft 21s 9s 13 18 mph 1015.3mb 53f 54f
4:50pm 7.5ft 12s 8s 13 16 mph 1015.5mb 53f 54f
3:50pm 8ft 11s 8s 16 18 mph 1015.7mb 53f 55f
2:50pm 8.5ft 10s 8s 16 18 mph 1015.8mb 53f 55f
1:50pm 8.5ft 11s 8s 11 13 mph 1016.4mb 53f 54f
12:50pm 9ft 10s 8s 11 13 mph 1016.7mb 53f 54f
11:50am 8.5ft 11s 8s 11 13 mph 1017.2mb 53f 53f
10:50am 9ft 11s 8s 11 13 mph 1017.2mb 53f 53f
9:50am 9.5ft 11s 9s 9 11 mph 1016.7mb 52f 53f
8:50am 11ft 11s 9s 7 9 mph 1016.4mb 52f 53f
7:50am 10ft 11s 8s 7 9 mph 1016.1mb 51f 52f
6:50am 9.5ft 11s 8s 9 11 mph 1015.8mb 52f 52f
5:50am 10ft 11s 8s 11 13 mph 1015.5mb 52f 52f
4:50am 10ft 12s 8s 13 16 mph 1015.4mb 52f 52f
3:50am 10ft 10s 8s 16 20 mph 1015.3mb 52f 53f
2:50am 10.5ft 11s 8s 18 20 mph 1015.3mb 52f 53f
1:50am 10ft 11s 8s 16 18 mph 1015.8mb 52f 53f
12:50am 11.5ft 12s 8s 16 18 mph 1016.3mb 52f 52f
Wed 04/15 11:50pm 11ft 11s 8s 16 20 mph 1016.5mb 52f 53f
10:50pm 12ft 11s 8s 18 22 mph 1016.5mb 52f 53f
9:50pm 11ft 11s 8s 13 18 mph 1017.1mb 52f 53f
8:50pm 11ft 13s 8s 18 20 mph 1016.9mb 52f 53f
7:50pm 10ft 9s 8s 18 22 mph 1016.7mb 52f 53f